sensor_id;sensor_type;location;lat;lon;timestamp;P1;durP1;ratioP1;P2;durP2;ratioP2
30327;SDS011;17133;52.418;13.398;2022-07-12T00:01:34;6.15;;;3.40;;
30327;SDS011;17133;52.418;13.398;2022-07-12T00:04:00;5.18;;;3.58;;
30327;SDS011;17133;52.418;13.398;2022-07-12T00:06:26;6.53;;;3.95;;
30327;SDS011;17133;52.418;13.398;2022-07-12T00:08:52;6.00;;;3.63;;
30327;SDS011;17133;52.418;13.398;2022-07-12T00:11:18;5.75;;;3.30;;
30327;SDS011;17133;52.418;13.398;2022-07-12T00:13:44;7.78;;;3.47;;
30327;SDS011;17133;52.418;13.398;2022-07-12T00:16:11;8.43;;;3.88;;
30327;SDS011;17133;52.418;13.398;2022-07-12T00:18:37;5.32;;;3.47;;
30327;SDS011;17133;52.418;13.398;2022-07-12T00:21:03;5.65;;;3.47;;
30327;SDS011;17133;52.418;13.398;2022-07-12T00:23:29;5.00;;;3.20;;
30327;SDS011;17133;52.418;13.398;2022-07-12T00:25:55;5.50;;;3.08;;
30327;SDS011;17133;52.418;13.398;2022-07-12T00:28:21;5.80;;;3.83;;
30327;SDS011;17133;52.418;13.398;2022-07-12T00:30:47;5.65;;;3.00;;
30327;SDS011;17133;52.418;13.398;2022-07-12T00:33:13;6.60;;;3.53;;
30327;SDS011;17133;52.418;13.398;2022-07-12T00:35:39;6.82;;;3.78;;
30327;SDS011;17133;52.418;13.398;2022-07-12T00:38:05;8.23;;;4.10;;
30327;SDS011;17133;52.418;13.398;2022-07-12T00:40:31;7.55;;;3.88;;
30327;SDS011;17133;52.418;13.398;2022-07-12T00:42:57;6.57;;;3.90;;
30327;SDS011;17133;52.418;13.398;2022-07-12T00:45:23;5.18;;;3.40;;
30327;SDS011;17133;52.418;13.398;2022-07-12T00:47:49;6.88;;;4.60;;
30327;SDS011;17133;52.418;13.398;2022-07-12T00:50:16;9.75;;;4.15;;
30327;SDS011;17133;52.418;13.398;2022-07-12T00:52:43;7.50;;;3.72;;
30327;SDS011;17133;52.418;13.398;2022-07-12T00:55:11;6.47;;;3.70;;
30327;SDS011;17133;52.418;13.398;2022-07-12T00:57:37;6.97;;;3.90;;
30327;SDS011;17133;52.418;13.398;2022-07-12T01:00:06;11.30;;;4.32;;
30327;SDS011;17133;52.418;13.398;2022-07-12T01:02:33;6.68;;;3.55;;
30327;SDS011;17133;52.418;13.398;2022-07-12T01:05:00;6.93;;;3.88;;
30327;SDS011;17133;52.418;13.398;2022-07-12T01:07:27;6.78;;;4.25;;
30327;SDS011;17133;52.418;13.398;2022-07-12T01:09:54;6.20;;;3.65;;
30327;SDS011;17133;52.418;13.398;2022-07-12T01:12:20;6.88;;;3.60;;
30327;SDS011;17133;52.418;13.398;2022-07-12T01:14:46;7.68;;;4.20;;
30327;SDS011;17133;52.418;13.398;2022-07-12T01:17:13;6.60;;;4.10;;
30327;SDS011;17133;52.418;13.398;2022-07-12T01:19:39;7.00;;;4.00;;
30327;SDS011;17133;52.418;13.398;2022-07-12T01:22:07;6.25;;;3.85;;
30327;SDS011;17133;52.418;13.398;2022-07-12T01:24:34;5.38;;;3.85;;
30327;SDS011;17133;52.418;13.398;2022-07-12T01:27:00;7.13;;;3.33;;
30327;SDS011;17133;52.418;13.398;2022-07-12T01:29:31;4.30;;;3.37;;
30327;SDS011;17133;52.418;13.398;2022-07-12T01:32:04;6.57;;;3.58;;
30327;SDS011;17133;52.418;13.398;2022-07-12T01:34:50;6.22;;;3.40;;
30327;SDS011;17133;52.418;13.398;2022-07-12T01:37:17;6.25;;;3.00;;
30327;SDS011;17133;52.418;13.398;2022-07-12T01:39:44;5.78;;;3.15;;
30327;SDS011;17133;52.418;13.398;2022-07-12T01:42:10;6.10;;;3.28;;
30327;SDS011;17133;52.418;13.398;2022-07-12T01:44:36;6.90;;;3.00;;
30327;SDS011;17133;52.418;13.398;2022-07-12T01:47:02;4.72;;;2.80;;
30327;SDS011;17133;52.418;13.398;2022-07-12T01:49:28;7.32;;;3.00;;
30327;SDS011;17133;52.418;13.398;2022-07-12T01:51:55;3.97;;;2.92;;
30327;SDS011;17133;52.418;13.398;2022-07-12T01:54:21;6.05;;;3.10;;
30327;SDS011;17133;52.418;13.398;2022-07-12T01:56:47;5.47;;;3.33;;
30327;SDS011;17133;52.418;13.398;2022-07-12T01:59:13;4.68;;;3.00;;
30327;SDS011;17133;52.418;13.398;2022-07-12T02:01:39;4.30;;;3.20;;
30327;SDS011;17133;52.418;13.398;2022-07-12T02:04:05;4.97;;;2.55;;
30327;SDS011;17133;52.418;13.398;2022-07-12T02:06:32;4.00;;;2.63;;
30327;SDS011;17133;52.418;13.398;2022-07-12T02:08:58;7.35;;;3.15;;
30327;SDS011;17133;52.418;13.398;2022-07-12T02:11:24;5.13;;;3.10;;
30327;SDS011;17133;52.418;13.398;2022-07-12T02:13:50;5.75;;;2.60;;
30327;SDS011;17133;52.418;13.398;2022-07-12T02:16:16;6.40;;;3.13;;
30327;SDS011;17133;52.418;13.398;2022-07-12T02:18:42;5.68;;;3.08;;
30327;SDS011;17133;52.418;13.398;2022-07-12T02:21:08;5.38;;;2.80;;
30327;SDS011;17133;52.418;13.398;2022-07-12T02:23:34;5.75;;;3.20;;
30327;SDS011;17133;52.418;13.398;2022-07-12T02:26:00;7.70;;;3.63;;
30327;SDS011;17133;52.418;13.398;2022-07-12T02:28:26;5.07;;;2.78;;
30327;SDS011;17133;52.418;13.398;2022-07-12T02:30:52;5.53;;;2.67;;
30327;SDS011;17133;52.418;13.398;2022-07-12T02:33:18;4.50;;;3.33;;
30327;SDS011;17133;52.418;13.398;2022-07-12T02:35:45;5.20;;;3.40;;
30327;SDS011;17133;52.418;13.398;2022-07-12T02:38:11;7.88;;;3.65;;
30327;SDS011;17133;52.418;13.398;2022-07-12T02:40:37;5.45;;;3.28;;
30327;SDS011;17133;52.418;13.398;2022-07-12T02:43:18;5.05;;;3.28;;
30327;SDS011;17133;52.418;13.398;2022-07-12T02:45:44;5.95;;;3.60;;
30327;SDS011;17133;52.418;13.398;2022-07-12T02:48:10;4.75;;;3.38;;
30327;SDS011;17133;52.418;13.398;2022-07-12T02:50:37;4.32;;;2.95;;
30327;SDS011;17133;52.418;13.398;2022-07-12T02:53:03;4.43;;;2.97;;
30327;SDS011;17133;52.418;13.398;2022-07-12T02:55:29;4.72;;;2.88;;
30327;SDS011;17133;52.418;13.398;2022-07-12T02:57:55;5.72;;;3.35;;
30327;SDS011;17133;52.418;13.398;2022-07-12T03:00:21;5.32;;;3.35;;
30327;SDS011;17133;52.418;13.398;2022-07-12T03:02:47;6.78;;;3.10;;
30327;SDS011;17133;52.418;13.398;2022-07-12T03:05:13;5.03;;;3.10;;
30327;SDS011;17133;52.418;13.398;2022-07-12T03:07:40;5.38;;;3.38;;
30327;SDS011;17133;52.418;13.398;2022-07-12T03:10:06;5.35;;;3.13;;
30327;SDS011;17133;52.418;13.398;2022-07-12T03:12:32;4.65;;;3.47;;
30327;SDS011;17133;52.418;13.398;2022-07-12T03:14:59;7.45;;;3.75;;
30327;SDS011;17133;52.418;13.398;2022-07-12T03:17:25;5.25;;;3.17;;
30327;SDS011;17133;52.418;13.398;2022-07-12T03:19:51;4.75;;;3.13;;
30327;SDS011;17133;52.418;13.398;2022-07-12T03:22:17;5.43;;;3.55;;
30327;SDS011;17133;52.418;13.398;2022-07-12T03:24:43;5.80;;;3.45;;
30327;SDS011;17133;52.418;13.398;2022-07-12T03:27:09;5.68;;;3.10;;
30327;SDS011;17133;52.418;13.398;2022-07-12T03:29:35;5.70;;;3.50;;
30327;SDS011;17133;52.418;13.398;2022-07-12T03:32:02;4.22;;;2.85;;
30327;SDS011;17133;52.418;13.398;2022-07-12T03:34:28;5.40;;;2.88;;
30327;SDS011;17133;52.418;13.398;2022-07-12T03:36:54;5.10;;;2.90;;
30327;SDS011;17133;52.418;13.398;2022-07-12T03:39:20;4.72;;;3.00;;
30327;SDS011;17133;52.418;13.398;2022-07-12T03:41:46;4.70;;;3.15;;
30327;SDS011;17133;52.418;13.398;2022-07-12T03:44:12;6.80;;;3.40;;
30327;SDS011;17133;52.418;13.398;2022-07-12T03:46:38;3.80;;;3.00;;
30327;SDS011;17133;52.418;13.398;2022-07-12T03:49:04;5.03;;;2.90;;
30327;SDS011;17133;52.418;13.398;2022-07-12T03:51:30;6.13;;;2.90;;
30327;SDS011;17133;52.418;13.398;2022-07-12T03:53:56;3.80;;;2.78;;
30327;SDS011;17133;52.418;13.398;2022-07-12T03:56:22;5.05;;;2.67;;
30327;SDS011;17133;52.418;13.398;2022-07-12T03:59:07;6.35;;;3.10;;
30327;SDS011;17133;52.418;13.398;2022-07-12T04:01:33;6.00;;;3.00;;
30327;SDS011;17133;52.418;13.398;2022-07-12T04:03:59;5.80;;;3.35;;
30327;SDS011;17133;52.418;13.398;2022-07-12T04:06:25;5.57;;;3.63;;
30327;SDS011;17133;52.418;13.398;2022-07-12T04:08:53;4.13;;;2.80;;
30327;SDS011;17133;52.418;13.398;2022-07-12T04:11:19;6.05;;;3.20;;
30327;SDS011;17133;52.418;13.398;2022-07-12T04:13:45;11.18;;;3.35;;
30327;SDS011;17133;52.418;13.398;2022-07-12T04:16:11;5.30;;;3.28;;
30327;SDS011;17133;52.418;13.398;2022-07-12T04:18:37;6.30;;;2.75;;
30327;SDS011;17133;52.418;13.398;2022-07-12T04:21:04;4.75;;;2.85;;
30327;SDS011;17133;52.418;13.398;2022-07-12T04:23:30;5.43;;;2.97;;
30327;SDS011;17133;52.418;13.398;2022-07-12T04:25:56;5.90;;;2.85;;
30327;SDS011;17133;52.418;13.398;2022-07-12T04:28:22;3.55;;;2.35;;
30327;SDS011;17133;52.418;13.398;2022-07-12T04:30:47;3.58;;;2.42;;
30327;SDS011;17133;52.418;13.398;2022-07-12T04:33:14;5.13;;;2.70;;
30327;SDS011;17133;52.418;13.398;2022-07-12T04:35:40;5.18;;;2.50;;
30327;SDS011;17133;52.418;13.398;2022-07-12T04:38:07;5.90;;;2.97;;
30327;SDS011;17133;52.418;13.398;2022-07-12T04:40:33;4.85;;;2.90;;
30327;SDS011;17133;52.418;13.398;2022-07-12T04:42:59;3.25;;;2.15;;
30327;SDS011;17133;52.418;13.398;2022-07-12T04:45:25;4.30;;;2.20;;
30327;SDS011;17133;52.418;13.398;2022-07-12T04:47:51;5.57;;;2.50;;
30327;SDS011;17133;52.418;13.398;2022-07-12T04:50:17;5.82;;;2.58;;
30327;SDS011;17133;52.418;13.398;2022-07-12T04:52:43;4.25;;;1.95;;
30327;SDS011;17133;52.418;13.398;2022-07-12T04:55:09;3.65;;;2.30;;
30327;SDS011;17133;52.418;13.398;2022-07-12T04:57:35;5.15;;;2.30;;
30327;SDS011;17133;52.418;13.398;2022-07-12T05:00:05;5.03;;;2.35;;
30327;SDS011;17133;52.418;13.398;2022-07-12T05:02:32;3.60;;;2.10;;
30327;SDS011;17133;52.418;13.398;2022-07-12T05:04:58;4.32;;;2.30;;
30327;SDS011;17133;52.418;13.398;2022-07-12T05:07:24;2.72;;;1.90;;
30327;SDS011;17133;52.418;13.398;2022-07-12T05:09:50;4.40;;;2.10;;
30327;SDS011;17133;52.418;13.398;2022-07-12T05:12:16;5.38;;;1.65;;
30327;SDS011;17133;52.418;13.398;2022-07-12T05:14:42;5.55;;;2.03;;
30327;SDS011;17133;52.418;13.398;2022-07-12T05:17:08;4.45;;;2.10;;
30327;SDS011;17133;52.418;13.398;2022-07-12T05:19:35;3.25;;;1.70;;
30327;SDS011;17133;52.418;13.398;2022-07-12T05:22:01;5.10;;;2.40;;
30327;SDS011;17133;52.418;13.398;2022-07-12T05:24:27;3.58;;;1.70;;
30327;SDS011;17133;52.418;13.398;2022-07-12T05:26:53;3.72;;;1.90;;
30327;SDS011;17133;52.418;13.398;2022-07-12T05:29:19;5.55;;;1.40;;
30327;SDS011;17133;52.418;13.398;2022-07-12T05:31:45;6.60;;;1.95;;
30327;SDS011;17133;52.418;13.398;2022-07-12T05:34:11;3.20;;;1.40;;
30327;SDS011;17133;52.418;13.398;2022-07-12T05:36:37;5.72;;;1.98;;
30327;SDS011;17133;52.418;13.398;2022-07-12T05:39:05;4.40;;;1.70;;
30327;SDS011;17133;52.418;13.398;2022-07-12T05:41:31;4.10;;;1.65;;
30327;SDS011;17133;52.418;13.398;2022-07-12T05:43:57;4.20;;;1.88;;
30327;SDS011;17133;52.418;13.398;2022-07-12T05:46:22;3.15;;;1.35;;
30327;SDS011;17133;52.418;13.398;2022-07-12T05:48:48;2.83;;;1.30;;
30327;SDS011;17133;52.418;13.398;2022-07-12T05:51:14;3.35;;;1.30;;
30327;SDS011;17133;52.418;13.398;2022-07-12T05:53:58;3.67;;;1.38;;
30327;SDS011;17133;52.418;13.398;2022-07-12T05:56:26;3.03;;;1.33;;
30327;SDS011;17133;52.418;13.398;2022-07-12T05:58:52;6.80;;;1.70;;
30327;SDS011;17133;52.418;13.398;2022-07-12T06:01:19;4.05;;;1.50;;
30327;SDS011;17133;52.418;13.398;2022-07-12T06:03:44;5.88;;;1.50;;
30327;SDS011;17133;52.418;13.398;2022-07-12T06:06:10;5.60;;;1.30;;
30327;SDS011;17133;52.418;13.398;2022-07-12T06:08:36;5.22;;;1.40;;
30327;SDS011;17133;52.418;13.398;2022-07-12T06:11:01;2.70;;;1.10;;
30327;SDS011;17133;52.418;13.398;2022-07-12T06:13:27;3.35;;;1.33;;
30327;SDS011;17133;52.418;13.398;2022-07-12T06:15:53;3.28;;;1.30;;
30327;SDS011;17133;52.418;13.398;2022-07-12T06:18:20;2.50;;;1.27;;
30327;SDS011;17133;52.418;13.398;2022-07-12T06:20:46;4.43;;;1.48;;
30327;SDS011;17133;52.418;13.398;2022-07-12T06:23:12;3.90;;;1.33;;
30327;SDS011;17133;52.418;13.398;2022-07-12T06:25:38;3.90;;;1.42;;
30327;SDS011;17133;52.418;13.398;2022-07-12T06:28:05;6.93;;;1.77;;
30327;SDS011;17133;52.418;13.398;2022-07-12T06:30:30;3.45;;;1.40;;
30327;SDS011;17133;52.418;13.398;2022-07-12T06:33:05;3.85;;;1.63;;
30327;SDS011;17133;52.418;13.398;2022-07-12T06:36:12;6.32;;;1.65;;
30327;SDS011;17133;52.418;13.398;2022-07-12T06:38:37;6.63;;;1.70;;
30327;SDS011;17133;52.418;13.398;2022-07-12T06:41:03;6.95;;;1.63;;
30327;SDS011;17133;52.418;13.398;2022-07-12T06:43:29;5.90;;;1.23;;
30327;SDS011;17133;52.418;13.398;2022-07-12T06:45:54;2.85;;;1.40;;
30327;SDS011;17133;52.418;13.398;2022-07-12T06:48:20;2.78;;;1.13;;
30327;SDS011;17133;52.418;13.398;2022-07-12T06:50:45;1.92;;;1.05;;
30327;SDS011;17133;52.418;13.398;2022-07-12T06:53:11;3.55;;;1.38;;
30327;SDS011;17133;52.418;13.398;2022-07-12T06:55:37;5.30;;;1.38;;
30327;SDS011;17133;52.418;13.398;2022-07-12T06:58:03;3.80;;;1.08;;
30327;SDS011;17133;52.418;13.398;2022-07-12T07:00:30;3.00;;;1.35;;
30327;SDS011;17133;52.418;13.398;2022-07-12T07:02:55;7.78;;;1.63;;
30327;SDS011;17133;52.418;13.398;2022-07-12T07:05:21;4.40;;;1.50;;
30327;SDS011;17133;52.418;13.398;2022-07-12T07:07:47;5.57;;;1.50;;
30327;SDS011;17133;52.418;13.398;2022-07-12T07:10:13;4.68;;;1.33;;
30327;SDS011;17133;52.418;13.398;2022-07-12T07:12:39;3.90;;;1.13;;
30327;SDS011;17133;52.418;13.398;2022-07-12T07:15:06;4.85;;;1.10;;
30327;SDS011;17133;52.418;13.398;2022-07-12T07:17:32;5.47;;;1.27;;
30327;SDS011;17133;52.418;13.398;2022-07-12T07:19:58;3.83;;;1.48;;
30327;SDS011;17133;52.418;13.398;2022-07-12T07:22:24;4.32;;;1.52;;
30327;SDS011;17133;52.418;13.398;2022-07-12T07:24:49;5.70;;;1.17;;
30327;SDS011;17133;52.418;13.398;2022-07-12T07:27:15;5.85;;;1.15;;
30327;SDS011;17133;52.418;13.398;2022-07-12T07:29:41;2.15;;;1.10;;
30327;SDS011;17133;52.418;13.398;2022-07-12T07:32:26;3.40;;;1.10;;
30327;SDS011;17133;52.418;13.398;2022-07-12T07:34:52;2.97;;;1.00;;
30327;SDS011;17133;52.418;13.398;2022-07-12T07:37:18;3.30;;;1.23;;
30327;SDS011;17133;52.418;13.398;2022-07-12T07:39:44;2.03;;;1.20;;
30327;SDS011;17133;52.418;13.398;2022-07-12T07:42:09;4.65;;;1.30;;
30327;SDS011;17133;52.418;13.398;2022-07-12T07:44:35;3.03;;;0.93;;
30327;SDS011;17133;52.418;13.398;2022-07-12T07:47:01;7.47;;;1.10;;
30327;SDS011;17133;52.418;13.398;2022-07-12T07:49:27;1.42;;;0.85;;
30327;SDS011;17133;52.418;13.398;2022-07-12T07:51:53;3.42;;;1.20;;
30327;SDS011;17133;52.418;13.398;2022-07-12T07:54:19;3.65;;;0.90;;
30327;SDS011;17133;52.418;13.398;2022-07-12T07:56:45;3.28;;;1.08;;
30327;SDS011;17133;52.418;13.398;2022-07-12T07:59:10;2.72;;;0.93;;
30327;SDS011;17133;52.418;13.398;2022-07-12T08:01:36;3.60;;;0.90;;
30327;SDS011;17133;52.418;13.398;2022-07-12T08:04:08;3.20;;;0.85;;
30327;SDS011;17133;52.418;13.398;2022-07-12T08:06:35;3.03;;;0.95;;
30327;SDS011;17133;52.418;13.398;2022-07-12T08:09:01;3.53;;;0.70;;
30327;SDS011;17133;52.418;13.398;2022-07-12T08:11:29;4.03;;;0.90;;
30327;SDS011;17133;52.418;13.398;2022-07-12T08:13:55;1.98;;;0.80;;
30327;SDS011;17133;52.418;13.398;2022-07-12T08:16:20;3.13;;;0.90;;
30327;SDS011;17133;52.418;13.398;2022-07-12T08:18:46;2.97;;;0.70;;
30327;SDS011;17133;52.418;13.398;2022-07-12T08:21:12;2.38;;;0.70;;
30327;SDS011;17133;52.418;13.398;2022-07-12T08:23:37;2.53;;;0.73;;
30327;SDS011;17133;52.418;13.398;2022-07-12T08:26:06;1.95;;;0.70;;
30327;SDS011;17133;52.418;13.398;2022-07-12T08:28:32;2.47;;;0.82;;
30327;SDS011;17133;52.418;13.398;2022-07-12T08:31:00;2.97;;;0.60;;
30327;SDS011;17133;52.418;13.398;2022-07-12T08:33:26;1.92;;;0.80;;
30327;SDS011;17133;52.418;13.398;2022-07-12T08:35:51;2.08;;;0.70;;
30327;SDS011;17133;52.418;13.398;2022-07-12T08:41:46;3.35;;;1.02;;
30327;SDS011;17133;52.418;13.398;2022-07-12T08:44:13;2.22;;;0.80;;
30327;SDS011;17133;52.418;13.398;2022-07-12T08:46:39;3.22;;;1.20;;
30327;SDS011;17133;52.418;13.398;2022-07-12T08:49:05;2.40;;;0.70;;
30327;SDS011;17133;52.418;13.398;2022-07-12T08:51:34;2.22;;;0.80;;
30327;SDS011;17133;52.418;13.398;2022-07-12T08:54:10;3.85;;;1.20;;
30327;SDS011;17133;52.418;13.398;2022-07-12T08:56:38;4.20;;;0.85;;
30327;SDS011;17133;52.418;13.398;2022-07-12T08:59:17;1.88;;;0.90;;
30327;SDS011;17133;52.418;13.398;2022-07-12T09:01:51;3.42;;;0.90;;
30327;SDS011;17133;52.418;13.398;2022-07-12T09:04:22;5.70;;;1.10;;
30327;SDS011;17133;52.418;13.398;2022-07-12T09:06:49;1.73;;;0.80;;
30327;SDS011;17133;52.418;13.398;2022-07-12T09:09:28;2.90;;;0.90;;
30327;SDS011;17133;52.418;13.398;2022-07-12T09:11:54;2.20;;;0.90;;
30327;SDS011;17133;52.418;13.398;2022-07-12T09:14:24;3.63;;;0.85;;
30327;SDS011;17133;52.418;13.398;2022-07-12T09:17:01;1.92;;;0.70;;
30327;SDS011;17133;52.418;13.398;2022-07-12T09:19:34;2.13;;;0.80;;
30327;SDS011;17133;52.418;13.398;2022-07-12T09:22:00;1.77;;;0.80;;
30327;SDS011;17133;52.418;13.398;2022-07-12T09:24:27;2.38;;;1.00;;
30327;SDS011;17133;52.418;13.398;2022-07-12T09:26:55;2.55;;;0.90;;
30327;SDS011;17133;52.418;13.398;2022-07-12T09:29:24;2.63;;;1.00;;
30327;SDS011;17133;52.418;13.398;2022-07-12T09:31:51;3.25;;;1.00;;
30327;SDS011;17133;52.418;13.398;2022-07-12T09:34:36;2.78;;;1.10;;
30327;SDS011;17133;52.418;13.398;2022-07-12T09:37:21;4.43;;;0.80;;
30327;SDS011;17133;52.418;13.398;2022-07-12T09:39:54;2.22;;;0.70;;
30327;SDS011;17133;52.418;13.398;2022-07-12T09:42:20;3.28;;;0.85;;
30327;SDS011;17133;52.418;13.398;2022-07-12T09:44:46;2.58;;;0.88;;
30327;SDS011;17133;52.418;13.398;2022-07-12T09:47:14;3.25;;;0.90;;
30327;SDS011;17133;52.418;13.398;2022-07-12T09:49:41;4.78;;;0.90;;
30327;SDS011;17133;52.418;13.398;2022-07-12T09:52:25;4.07;;;0.90;;
30327;SDS011;17133;52.418;13.398;2022-07-12T09:54:52;2.05;;;0.70;;
30327;SDS011;17133;52.418;13.398;2022-07-12T09:57:21;1.50;;;0.40;;
30327;SDS011;17133;52.418;13.398;2022-07-12T09:59:55;5.43;;;1.15;;
30327;SDS011;17133;52.418;13.398;2022-07-12T10:02:22;2.17;;;0.88;;
30327;SDS011;17133;52.418;13.398;2022-07-12T10:04:49;3.30;;;0.90;;
30327;SDS011;17133;52.418;13.398;2022-07-12T10:07:15;3.90;;;0.88;;
30327;SDS011;17133;52.418;13.398;2022-07-12T10:09:41;4.82;;;1.00;;
30327;SDS011;17133;52.418;13.398;2022-07-12T10:12:10;1.57;;;0.80;;
30327;SDS011;17133;52.418;13.398;2022-07-12T10:14:39;2.08;;;0.80;;
30327;SDS011;17133;52.418;13.398;2022-07-12T10:17:06;3.10;;;0.75;;
30327;SDS011;17133;52.418;13.398;2022-07-12T10:19:34;2.13;;;0.80;;
30327;SDS011;17133;52.418;13.398;2022-07-12T10:22:05;2.42;;;0.88;;
30327;SDS011;17133;52.418;13.398;2022-07-12T10:29:38;2.92;;;0.70;;
30327;SDS011;17133;52.418;13.398;2022-07-12T10:35:05;2.35;;;0.80;;
30327;SDS011;17133;52.418;13.398;2022-07-12T10:37:33;0.88;;;0.68;;
30327;SDS011;17133;52.418;13.398;2022-07-12T10:40:18;2.35;;;0.90;;
30327;SDS011;17133;52.418;13.398;2022-07-12T10:43:32;2.17;;;0.70;;
30327;SDS011;17133;52.418;13.398;2022-07-12T10:48:01;1.52;;;0.90;;
30327;SDS011;17133;52.418;13.398;2022-07-12T10:58:35;2.85;;;0.80;;
30327;SDS011;17133;52.418;13.398;2022-07-12T11:01:09;2.88;;;0.55;;
30327;SDS011;17133;52.418;13.398;2022-07-12T11:03:37;1.75;;;0.60;;
30327;SDS011;17133;52.418;13.398;2022-07-12T11:06:12;2.28;;;0.93;;
30327;SDS011;17133;52.418;13.398;2022-07-12T11:11:15;2.10;;;0.73;;
30327;SDS011;17133;52.418;13.398;2022-07-12T11:13:41;2.30;;;0.80;;
30327;SDS011;17133;52.418;13.398;2022-07-12T11:16:06;1.10;;;0.60;;
30327;SDS011;17133;52.418;13.398;2022-07-12T11:18:33;2.00;;;1.08;;
30327;SDS011;17133;52.418;13.398;2022-07-12T11:21:00;1.63;;;0.82;;
30327;SDS011;17133;52.418;13.398;2022-07-12T11:23:27;2.22;;;0.73;;
30327;SDS011;17133;52.418;13.398;2022-07-12T11:25:54;2.58;;;0.95;;
30327;SDS011;17133;52.418;13.398;2022-07-12T11:28:28;2.83;;;0.80;;
30327;SDS011;17133;52.418;13.398;2022-07-12T11:31:28;1.38;;;0.70;;
30327;SDS011;17133;52.418;13.398;2022-07-12T11:33:48;4.45;;;1.08;;
30327;SDS011;17133;52.418;13.398;2022-07-12T11:36:14;2.10;;;0.80;;
30327;SDS011;17133;52.418;13.398;2022-07-12T11:38:43;2.85;;;1.15;;
30327;SDS011;17133;52.418;13.398;2022-07-12T11:41:11;2.17;;;0.70;;
30327;SDS011;17133;52.418;13.398;2022-07-12T11:43:38;1.45;;;0.70;;
30327;SDS011;17133;52.418;13.398;2022-07-12T11:46:05;3.42;;;1.40;;
30327;SDS011;17133;52.418;13.398;2022-07-12T11:48:31;3.75;;;1.00;;
30327;SDS011;17133;52.418;13.398;2022-07-12T11:51:00;4.15;;;0.88;;
30327;SDS011;17133;52.418;13.398;2022-07-12T11:53:28;3.75;;;1.10;;
30327;SDS011;17133;52.418;13.398;2022-07-12T11:55:56;4.25;;;1.02;;
30327;SDS011;17133;52.418;13.398;2022-07-12T11:58:24;2.83;;;0.83;;
30327;SDS011;17133;52.418;13.398;2022-07-12T12:00:51;2.72;;;1.00;;
30327;SDS011;17133;52.418;13.398;2022-07-12T12:03:18;3.40;;;0.90;;
30327;SDS011;17133;52.418;13.398;2022-07-12T12:05:48;1.40;;;0.70;;
30327;SDS011;17133;52.418;13.398;2022-07-12T12:08:16;1.38;;;0.80;;
30327;SDS011;17133;52.418;13.398;2022-07-12T12:10:43;2.03;;;0.73;;
30327;SDS011;17133;52.418;13.398;2022-07-12T12:13:21;1.85;;;0.77;;
30327;SDS011;17133;52.418;13.398;2022-07-12T12:15:48;2.70;;;0.70;;
30327;SDS011;17133;52.418;13.398;2022-07-12T12:18:16;1.88;;;0.90;;
30327;SDS011;17133;52.418;13.398;2022-07-12T12:20:56;2.50;;;0.70;;
30327;SDS011;17133;52.418;13.398;2022-07-12T12:23:26;2.17;;;1.02;;
30327;SDS011;17133;52.418;13.398;2022-07-12T12:25:52;1.48;;;0.68;;
30327;SDS011;17133;52.418;13.398;2022-07-12T12:28:40;2.83;;;1.05;;
30327;SDS011;17133;52.418;13.398;2022-07-12T12:31:06;2.10;;;0.80;;
30327;SDS011;17133;52.418;13.398;2022-07-12T12:33:35;1.02;;;0.70;;
30327;SDS011;17133;52.418;13.398;2022-07-12T12:39:01;1.60;;;0.70;;
30327;SDS011;17133;52.418;13.398;2022-07-12T12:41:30;2.88;;;0.68;;
30327;SDS011;17133;52.418;13.398;2022-07-12T12:44:03;1.80;;;0.75;;
30327;SDS011;17133;52.418;13.398;2022-07-12T12:49:55;2.25;;;1.05;;
30327;SDS011;17133;52.418;13.398;2022-07-12T12:52:29;3.80;;;0.95;;
30327;SDS011;17133;52.418;13.398;2022-07-12T12:55:15;1.63;;;0.77;;
30327;SDS011;17133;52.418;13.398;2022-07-12T13:00:42;1.52;;;0.70;;
30327;SDS011;17133;52.418;13.398;2022-07-12T13:03:10;2.08;;;1.00;;
30327;SDS011;17133;52.418;13.398;2022-07-12T13:05:37;1.43;;;0.80;;
30327;SDS011;17133;52.418;13.398;2022-07-12T13:08:03;2.13;;;0.88;;
30327;SDS011;17133;52.418;13.398;2022-07-12T13:10:30;2.30;;;0.70;;
30327;SDS011;17133;52.418;13.398;2022-07-12T13:12:56;2.10;;;0.85;;
30327;SDS011;17133;52.418;13.398;2022-07-12T13:15:22;3.28;;;0.80;;
30327;SDS011;17133;52.418;13.398;2022-07-12T13:17:48;2.95;;;1.20;;
30327;SDS011;17133;52.418;13.398;2022-07-12T13:20:14;2.45;;;1.05;;
30327;SDS011;17133;52.418;13.398;2022-07-12T13:22:40;4.63;;;1.00;;
30327;SDS011;17133;52.418;13.398;2022-07-12T13:25:07;3.05;;;1.05;;
30327;SDS011;17133;52.418;13.398;2022-07-12T13:27:34;2.13;;;0.90;;
30327;SDS011;17133;52.418;13.398;2022-07-12T13:30:01;1.30;;;0.60;;
30327;SDS011;17133;52.418;13.398;2022-07-12T13:32:27;2.78;;;1.08;;
30327;SDS011;17133;52.418;13.398;2022-07-12T13:34:53;3.05;;;1.30;;
30327;SDS011;17133;52.418;13.398;2022-07-12T13:37:19;2.65;;;1.10;;
30327;SDS011;17133;52.418;13.398;2022-07-12T13:39:44;2.88;;;0.80;;
30327;SDS011;17133;52.418;13.398;2022-07-12T13:42:28;1.55;;;0.80;;
30327;SDS011;17133;52.418;13.398;2022-07-12T13:44:54;2.92;;;0.80;;
30327;SDS011;17133;52.418;13.398;2022-07-12T13:47:20;4.80;;;1.00;;
30327;SDS011;17133;52.418;13.398;2022-07-12T13:49:46;3.30;;;0.95;;
30327;SDS011;17133;52.418;13.398;2022-07-12T13:52:13;4.13;;;1.08;;
30327;SDS011;17133;52.418;13.398;2022-07-12T13:54:40;4.03;;;0.80;;
30327;SDS011;17133;52.418;13.398;2022-07-12T13:57:06;2.45;;;0.80;;
30327;SDS011;17133;52.418;13.398;2022-07-12T13:59:32;1.13;;;0.57;;
30327;SDS011;17133;52.418;13.398;2022-07-12T14:01:58;2.35;;;0.70;;
30327;SDS011;17133;52.418;13.398;2022-07-12T14:04:23;4.35;;;1.25;;
30327;SDS011;17133;52.418;13.398;2022-07-12T14:06:49;2.20;;;0.90;;
30327;SDS011;17133;52.418;13.398;2022-07-12T14:09:15;2.42;;;1.10;;
30327;SDS011;17133;52.418;13.398;2022-07-12T14:11:41;1.52;;;0.80;;
30327;SDS011;17133;52.418;13.398;2022-07-12T14:14:06;6.72;;;0.95;;
30327;SDS011;17133;52.418;13.398;2022-07-12T14:16:32;1.73;;;0.73;;
30327;SDS011;17133;52.418;13.398;2022-07-12T14:18:58;2.58;;;1.17;;
30327;SDS011;17133;52.418;13.398;2022-07-12T14:21:26;2.88;;;0.90;;
30327;SDS011;17133;52.418;13.398;2022-07-12T14:23:52;1.85;;;0.90;;
30327;SDS011;17133;52.418;13.398;2022-07-12T14:26:21;4.65;;;0.90;;
30327;SDS011;17133;52.418;13.398;2022-07-12T14:28:46;3.45;;;2.45;;
30327;SDS011;17133;52.418;13.398;2022-07-12T14:31:12;2.60;;;1.15;;
30327;SDS011;17133;52.418;13.398;2022-07-12T14:33:37;3.47;;;1.13;;
30327;SDS011;17133;52.418;13.398;2022-07-12T14:36:03;3.30;;;1.63;;
30327;SDS011;17133;52.418;13.398;2022-07-12T14:38:29;2.30;;;1.08;;
30327;SDS011;17133;52.418;13.398;2022-07-12T14:40:57;3.03;;;0.73;;
30327;SDS011;17133;52.418;13.398;2022-07-12T14:43:23;2.45;;;0.93;;
30327;SDS011;17133;52.418;13.398;2022-07-12T14:45:49;2.67;;;0.93;;
30327;SDS011;17133;52.418;13.398;2022-07-12T14:48:14;3.08;;;0.68;;
30327;SDS011;17133;52.418;13.398;2022-07-12T14:50:40;3.40;;;0.88;;
30327;SDS011;17133;52.418;13.398;2022-07-12T14:53:06;2.15;;;0.98;;
30327;SDS011;17133;52.418;13.398;2022-07-12T14:55:32;2.58;;;0.90;;
30327;SDS011;17133;52.418;13.398;2022-07-12T14:57:58;2.50;;;0.75;;
30327;SDS011;17133;52.418;13.398;2022-07-12T15:00:25;2.08;;;0.80;;
30327;SDS011;17133;52.418;13.398;2022-07-12T15:02:51;3.22;;;1.23;;
30327;SDS011;17133;52.418;13.398;2022-07-12T15:05:17;3.65;;;1.13;;
30327;SDS011;17133;52.418;13.398;2022-07-12T15:07:45;3.70;;;1.05;;
30327;SDS011;17133;52.418;13.398;2022-07-12T15:10:11;1.60;;;0.75;;